createdAt,value
2017-11-20T00:00:33.662Z,101215.81
2017-11-20T00:01:36.139Z,101216.22
2017-11-20T00:02:38.608Z,101214.03
2017-11-20T00:03:41.092Z,101219.92
2017-11-20T00:04:43.556Z,101209.09
2017-11-20T00:05:46.050Z,101209.66
2017-11-20T00:06:48.531Z,101214.84
2017-11-20T00:07:51.011Z,101206.71
2017-11-20T00:08:53.496Z,101202.98
2017-11-20T00:09:55.979Z,101205.02
2017-11-20T00:10:58.465Z,101206.64
2017-11-20T00:12:00.937Z,101203.34
2017-11-20T00:13:03.401Z,101198.00
2017-11-20T00:14:05.878Z,101205.27
2017-11-20T00:15:08.348Z,101197.19
2017-11-20T00:16:10.847Z,101198.56
2017-11-20T00:17:13.366Z,101199.12
2017-11-20T00:18:15.828Z,101200.23
2017-11-20T00:19:18.295Z,101195.27
2017-11-20T00:20:20.783Z,101199.95
2017-11-20T00:21:23.263Z,101200.36
2017-11-20T00:22:25.738Z,101198.17
2017-11-20T00:23:28.208Z,101200.91
2017-11-20T00:24:30.721Z,101198.32
2017-11-20T00:25:33.202Z,101191.05
2017-11-20T00:26:35.715Z,101191.05
2017-11-20T00:27:38.190Z,101191.84
2017-11-20T00:28:40.656Z,101195.25
2017-11-20T00:29:43.139Z,101188.29
2017-11-20T00:30:45.604Z,101188.86
2017-11-20T00:31:48.114Z,101193.63
2017-11-20T00:32:50.594Z,101187.85
2017-11-20T00:33:53.056Z,101190.78
2017-11-20T00:34:55.528Z,101180.65
2017-11-20T00:35:57.988Z,101187.95
2017-11-20T00:37:00.500Z,101188.81
2017-11-20T00:38:02.960Z,101189.16
2017-11-20T00:39:05.420Z,101183.49
2017-11-20T00:40:07.892Z,101187.16
2017-11-20T00:41:10.352Z,101185.47
2017-11-20T00:42:12.850Z,101183.13
2017-11-20T00:43:15.308Z,101187.09
2017-11-20T00:44:17.782Z,101186.79
2017-11-20T00:45:20.326Z,101189.54
2017-11-20T00:46:22.796Z,101189.79
2017-11-20T00:47:25.305Z,101183.48
2017-11-20T00:48:27.782Z,101188.57
2017-11-20T00:49:30.246Z,101193.25
2017-11-20T00:50:32.726Z,101194.78
2017-11-20T00:51:35.216Z,101198.81
2017-11-20T00:52:37.715Z,101194.28
2017-11-20T00:53:40.180Z,101202.94
2017-11-20T00:54:42.649Z,101203.90
2017-11-20T00:55:45.112Z,101199.11
2017-11-20T00:56:47.587Z,101202.17
2017-11-20T00:57:50.068Z,101199.98
2017-11-20T00:58:52.551Z,101200.14
2017-11-20T00:59:55.015Z,101205.91
2017-11-20T01:00:57.484Z,101201.79
2017-11-20T01:01:59.968Z,101207.19
2017-11-20T01:03:02.457Z,101199.50
2017-11-20T01:04:04.921Z,101198.28
2017-11-20T01:05:07.405Z,101202.14
2017-11-20T01:06:09.875Z,101198.33
2017-11-20T01:07:12.359Z,101204.54
2017-11-20T01:08:14.847Z,101204.13
2017-11-20T01:09:17.312Z,101201.70
2017-11-20T01:10:19.782Z,101202.51
2017-11-20T01:11:22.243Z,101199.09
2017-11-20T01:12:24.713Z,101204.19
2017-11-20T01:13:27.212Z,101197.22
2017-11-20T01:14:29.769Z,101197.52
2017-11-20T01:15:32.245Z,101206.33
2017-11-20T01:16:34.707Z,101204.95
2017-11-20T01:17:37.168Z,101203.33
2017-11-20T01:18:39.663Z,101204.98
2017-11-20T01:19:42.122Z,101201.56
2017-11-20T01:20:44.599Z,101201.31
2017-11-20T01:21:47.074Z,101211.08
2017-11-20T01:22:49.543Z,101202.99
2017-11-20T01:23:52.050Z,101206.86
2017-11-20T01:24:54.516Z,101201.27
2017-11-20T01:25:56.994Z,101205.95
2017-11-20T01:26:59.469Z,101209.10
2017-11-20T01:28:01.928Z,101204.02
2017-11-20T01:29:04.432Z,101201.92
2017-11-20T01:30:06.924Z,101202.33
2017-11-20T01:31:09.407Z,101202.02
2017-11-20T01:32:11.868Z,101205.18
2017-11-20T01:33:14.328Z,101204.98
2017-11-20T01:34:16.829Z,101204.91
2017-11-20T01:35:19.305Z,101207.34
2017-11-20T01:36:21.782Z,101201.71
2017-11-20T01:37:24.240Z,101202.41
2017-11-20T01:38:26.708Z,101205.44
2017-11-20T01:39:29.193Z,101205.27
2017-11-20T01:40:31.655Z,101203.66
2017-11-20T01:41:34.138Z,101203.70
2017-11-20T01:42:36.603Z,101202.20
2017-11-20T01:43:39.082Z,101201.46
2017-11-20T01:44:41.583Z,101198.75
2017-11-20T01:45:44.063Z,101196.50
2017-11-20T01:46:46.535Z,101197.72
2017-11-20T01:47:49.019Z,101191.66
2017-11-20T01:48:51.491Z,101191.50
2017-11-20T01:49:53.993Z,101188.84
2017-11-20T01:50:56.451Z,101190.94
2017-11-20T01:51:58.934Z,101188.75
2017-11-20T01:53:01.416Z,101190.13
2017-11-20T01:54:03.898Z,101182.59
2017-11-20T01:55:06.383Z,101184.27
2017-11-20T01:56:08.857Z,101192.13
2017-11-20T01:57:11.333Z,101188.05
2017-11-20T01:58:13.792Z,101185.87
2017-11-20T01:59:16.281Z,101188.52
2017-11-20T02:00:18.766Z,101184.67
2017-11-20T02:01:21.239Z,101183.92
2017-11-20T02:02:23.714Z,101184.38
2017-11-20T02:03:26.176Z,101182.76
2017-11-20T02:04:28.651Z,101183.63
2017-11-20T02:05:31.129Z,101185.31
2017-11-20T02:06:33.602Z,101180.69
2017-11-20T02:07:36.073Z,101180.03
2017-11-20T02:08:38.559Z,101179.34
2017-11-20T02:09:41.036Z,101173.34
2017-11-20T02:10:43.514Z,101172.67
2017-11-20T02:11:45.990Z,101177.27
2017-11-20T02:12:48.447Z,101171.92
2017-11-20T02:13:50.926Z,101174.83
2017-11-20T02:14:53.443Z,101176.92
2017-11-20T02:15:55.899Z,101172.70
2017-11-20T02:16:58.375Z,101167.91
2017-11-20T02:18:00.836Z,101172.34
2017-11-20T02:19:03.297Z,101165.22
2017-11-20T02:20:05.775Z,101167.97
2017-11-20T02:21:08.252Z,101165.09
2017-11-20T02:22:10.734Z,101167.59
2017-11-20T02:23:13.196Z,101165.96
2017-11-20T02:24:15.655Z,101164.89
2017-11-20T02:25:18.124Z,101171.67
2017-11-20T02:26:20.602Z,101176.91
2017-11-20T02:27:23.080Z,101166.07
2017-11-20T02:28:25.541Z,101167.20
2017-11-20T02:29:28.029Z,101175.34
2017-11-20T02:30:30.487Z,101173.16
2017-11-20T02:31:32.970Z,101171.53
2017-11-20T02:32:35.445Z,101170.31
2017-11-20T02:33:37.928Z,101173.48
2017-11-20T02:34:40.410Z,101168.80
2017-11-20T02:35:42.920Z,101162.78
2017-11-20T02:36:45.385Z,101162.31
2017-11-20T02:37:47.855Z,101158.89
2017-11-20T02:38:50.324Z,101169.63
2017-11-20T02:39:52.809Z,101154.83
2017-11-20T02:40:55.292Z,101158.77
2017-11-20T02:41:57.762Z,101163.16
2017-11-20T02:43:00.255Z,101161.86
2017-11-20T02:44:02.738Z,101164.30
2017-11-20T02:45:05.224Z,101168.27
2017-11-20T02:46:07.751Z,101162.55
2017-11-20T02:47:10.223Z,101171.03
2017-11-20T02:48:12.689Z,101161.65
2017-11-20T02:49:15.172Z,101160.93
2017-11-20T02:50:17.659Z,101166.68
2017-11-20T02:51:20.148Z,101166.13
2017-11-20T02:52:22.631Z,101164.90
2017-11-20T02:53:25.130Z,101165.30
2017-11-20T02:54:27.606Z,101164.24
2017-11-20T02:55:30.119Z,101160.12
2017-11-20T02:56:32.607Z,101159.21
2017-11-20T02:57:35.073Z,101156.05
2017-11-20T02:58:37.544Z,101150.83
2017-11-20T02:59:40.012Z,101159.64
2017-11-20T03:00:42.514Z,101157.36
2017-11-20T03:01:45.008Z,101153.23
2017-11-20T03:02:47.485Z,101150.80
2017-11-20T03:03:49.943Z,101152.45
2017-11-20T03:04:52.418Z,101150.02
2017-11-20T03:05:54.883Z,101157.61
2017-11-20T03:06:57.386Z,101151.77
2017-11-20T03:07:59.862Z,101155.23
2017-11-20T03:09:02.325Z,101162.02
2017-11-20T03:10:04.810Z,101159.48
2017-11-20T03:11:07.282Z,101153.05
2017-11-20T03:12:09.786Z,101149.64
2017-11-20T03:13:12.277Z,101155.20
2017-11-20T03:14:14.761Z,101154.54
2017-11-20T03:15:17.240Z,101153.47
2017-11-20T03:16:19.702Z,101156.94
2017-11-20T03:17:22.198Z,101151.09
2017-11-20T03:18:24.682Z,101152.78
2017-11-20T03:19:27.149Z,101150.34
2017-11-20T03:20:29.607Z,101148.03
2017-11-20T03:21:32.083Z,101149.30
2017-11-20T03:22:34.598Z,101149.62
2017-11-20T03:23:37.060Z,101151.86
2017-11-20T03:24:39.538Z,101146.42
2017-11-20T03:25:42.018Z,101147.30
2017-11-20T03:26:44.479Z,101147.60
2017-11-20T03:27:46.959Z,101148.87
2017-11-20T03:28:49.424Z,101149.00
2017-11-20T03:29:51.906Z,101143.25
2017-11-20T03:30:54.387Z,101142.19
2017-11-20T03:31:56.869Z,101140.56
2017-11-20T03:32:59.362Z,101136.75
2017-11-20T03:34:01.928Z,101135.69
2017-11-20T03:35:04.407Z,101140.11
2017-11-20T03:36:06.868Z,101145.36
2017-11-20T03:37:09.348Z,101148.20
2017-11-20T03:38:11.851Z,101150.24
2017-11-20T03:39:14.321Z,101145.91
2017-11-20T03:40:16.797Z,101151.02
2017-11-20T03:41:19.264Z,101149.81
2017-11-20T03:42:21.742Z,101152.81
2017-11-20T03:43:24.237Z,101147.45
2017-11-20T03:44:26.711Z,101154.58
2017-11-20T03:45:29.186Z,101152.52
2017-11-20T03:46:31.658Z,101146.92
2017-11-20T03:47:34.125Z,101151.80
2017-11-20T03:48:36.616Z,101153.08
2017-11-20T03:49:39.076Z,101148.64
2017-11-20T03:50:41.555Z,101146.70
2017-11-20T03:51:44.044Z,101148.73
2017-11-20T03:52:46.521Z,101152.95
2017-11-20T03:53:49.003Z,101145.14
2017-11-20T03:54:51.483Z,101151.05
2017-11-20T03:55:53.955Z,101155.70
2017-11-20T03:56:56.435Z,101149.55
2017-11-20T03:57:58.896Z,101153.98
2017-11-20T03:59:01.405Z,101151.64
2017-11-20T04:00:03.868Z,101153.58
2017-11-20T04:01:06.354Z,101152.52
2017-11-20T04:02:08.832Z,101163.27
2017-11-20T04:03:12.125Z,101153.14
2017-11-20T04:04:14.608Z,101157.70
2017-11-20T04:05:17.077Z,101158.98
2017-11-20T04:06:19.541Z,101160.84
2017-11-20T04:07:22.013Z,101164.99
2017-11-20T04:08:24.498Z,101163.11
2017-11-20T04:09:26.976Z,101160.98
2017-11-20T04:10:29.454Z,101152.80
2017-11-20T04:11:31.930Z,101153.58
2017-11-20T04:12:34.391Z,101149.61
2017-11-20T04:13:36.869Z,101154.17
2017-11-20T04:14:39.372Z,101153.10
2017-11-20T04:15:41.832Z,101153.57
2017-11-20T04:16:44.296Z,101151.94
2017-11-20T04:17:46.771Z,101152.66
2017-11-20T04:18:49.251Z,101155.47
2017-11-20T04:19:51.750Z,101158.13
2017-11-20T04:20:54.222Z,101152.94
2017-11-20T04:21:56.684Z,101155.03
2017-11-20T04:22:59.156Z,101155.87
2017-11-20T04:24:01.679Z,101152.30
2017-11-20T04:25:04.179Z,101146.96
2017-11-20T04:26:06.648Z,101146.15
2017-11-20T04:27:09.112Z,101143.14
2017-11-20T04:28:11.590Z,101145.23
2017-11-20T04:29:14.070Z,101144.58
2017-11-20T04:30:16.559Z,101143.11
2017-11-20T04:31:19.020Z,101141.23
2017-11-20T04:32:21.502Z,101145.11
2017-11-20T04:33:23.990Z,101142.26
2017-11-20T04:34:26.457Z,101140.62
2017-11-20T04:35:28.919Z,101145.44
2017-11-20T04:36:31.385Z,101148.19
2017-11-20T04:37:33.863Z,101142.53
2017-11-20T04:38:36.336Z,101148.72
2017-11-20T04:39:38.830Z,101142.05
2017-11-20T04:40:41.312Z,101143.36
2017-11-20T04:41:43.866Z,101141.21
2017-11-20T04:42:46.350Z,101147.46
2017-11-20T04:43:48.839Z,101140.72
2017-11-20T04:44:51.315Z,101142.44
2017-11-20T04:45:53.799Z,101142.13
2017-11-20T04:46:56.273Z,101148.69
2017-11-20T04:47:58.759Z,101140.28
2017-11-20T04:49:01.228Z,101142.47
2017-11-20T04:50:03.706Z,101147.81
2017-11-20T04:51:06.180Z,101145.06
2017-11-20T04:52:08.669Z,101142.73
2017-11-20T04:53:11.132Z,101143.28
2017-11-20T04:54:13.587Z,101140.53
2017-11-20T04:55:16.065Z,101142.63
2017-11-20T04:56:18.542Z,101143.59
2017-11-20T04:57:21.327Z,101140.03
2017-11-20T04:58:23.865Z,101143.09
2017-11-20T04:59:26.345Z,101140.25
2017-11-20T05:00:28.851Z,101136.69
2017-11-20T05:01:31.389Z,101141.94
2017-11-20T05:02:33.868Z,101143.88
2017-11-20T05:03:36.340Z,101140.44
2017-11-20T05:04:38.809Z,101142.52
2017-11-20T05:05:41.282Z,101142.52
2017-11-20T05:06:43.758Z,101142.02
2017-11-20T05:07:46.255Z,101140.24
2017-11-20T05:08:48.714Z,101136.68
2017-11-20T05:09:51.209Z,101144.21
2017-11-20T05:10:53.691Z,101143.90
2017-11-20T05:11:56.173Z,101138.00
2017-11-20T05:12:58.659Z,101136.42
2017-11-20T05:14:01.143Z,101141.23
2017-11-20T05:15:03.639Z,101139.11
2017-11-20T05:16:06.122Z,101137.23
2017-11-20T05:17:08.603Z,101132.20
2017-11-20T05:18:11.085Z,101139.10
2017-11-20T05:19:13.571Z,101135.19
2017-11-20T05:20:16.036Z,101139.56
2017-11-20T05:21:18.515Z,101135.63
2017-11-20T05:22:20.992Z,101135.22
2017-11-20T05:23:23.498Z,101138.06
2017-11-20T05:24:25.996Z,101138.06
2017-11-20T05:25:28.465Z,101130.37
2017-11-20T05:26:30.942Z,101133.37
2017-11-20T05:27:33.407Z,101131.43
2017-11-20T05:28:35.872Z,101131.84
2017-11-20T05:29:38.359Z,101134.66
2017-11-20T05:30:40.839Z,101126.46
2017-11-20T05:31:43.372Z,101130.09
2017-11-20T05:32:45.854Z,101134.25
2017-11-20T05:33:48.312Z,101128.41
2017-11-20T05:34:50.791Z,101132.84
2017-11-20T05:35:53.310Z,101124.41
2017-11-20T05:36:55.776Z,101129.79
2017-11-20T05:37:58.271Z,101123.53
2017-11-20T05:39:00.753Z,101131.02
2017-11-20T05:40:03.235Z,101128.32
2017-11-20T05:41:05.721Z,101119.48
2017-11-20T05:42:08.257Z,101123.81
2017-11-20T05:43:10.735Z,101119.91
2017-11-20T05:44:13.205Z,101120.09
2017-11-20T05:45:15.665Z,101124.69
2017-11-20T05:46:18.145Z,101120.63
2017-11-20T05:47:20.612Z,101121.91
2017-11-20T05:48:23.136Z,101125.31
2017-11-20T05:49:25.591Z,101119.97
2017-11-20T05:50:28.063Z,101130.41
2017-11-20T05:51:30.539Z,101130.66
2017-11-20T05:52:33.021Z,101127.75
2017-11-20T05:53:35.501Z,101130.84
2017-11-20T05:54:37.982Z,101138.32
2017-11-20T05:55:40.467Z,101136.10
2017-11-20T05:56:42.942Z,101137.79
2017-11-20T05:57:45.419Z,101135.48
2017-11-20T05:58:47.885Z,101136.91
2017-11-20T05:59:50.361Z,101138.91
2017-11-20T06:00:52.821Z,101140.25
2017-11-20T06:01:55.281Z,101135.34
2017-11-20T06:02:57.748Z,101138.71
2017-11-20T06:04:00.208Z,101138.11
2017-11-20T06:05:02.690Z,101136.14
2017-11-20T06:06:05.165Z,101133.05
2017-11-20T06:07:07.957Z,101141.06
2017-11-20T06:08:10.493Z,101141.13
2017-11-20T06:09:12.970Z,101141.59
2017-11-20T06:10:15.433Z,101137.77
2017-11-20T06:11:17.891Z,101139.40
2017-11-20T06:12:20.377Z,101134.56
2017-11-20T06:13:22.899Z,101141.47
2017-11-20T06:14:25.382Z,101143.98
2017-11-20T06:15:27.870Z,101142.43
2017-11-20T06:16:30.350Z,101139.28
2017-11-20T06:17:32.835Z,101144.76
2017-11-20T06:18:35.316Z,101141.30
2017-11-20T06:19:37.802Z,101145.30
2017-11-20T06:20:40.321Z,101152.61
2017-11-20T06:21:42.783Z,101145.42
2017-11-20T06:22:45.259Z,101141.58
2017-11-20T06:23:47.752Z,101143.05
2017-11-20T06:24:50.234Z,101138.20
2017-11-20T06:25:52.699Z,101135.45
2017-11-20T06:26:55.261Z,101139.83
2017-11-20T06:27:57.767Z,101142.05
2017-11-20T06:29:00.268Z,101139.58
2017-11-20T06:30:02.731Z,101137.39
2017-11-20T06:31:05.196Z,101136.89
2017-11-20T06:32:07.678Z,101135.38
2017-11-20T06:33:10.144Z,101131.82
2017-11-20T06:34:12.628Z,101139.02
2017-11-20T06:35:15.106Z,101138.67
2017-11-20T06:36:17.582Z,101131.70
2017-11-20T06:37:20.302Z,101133.13
2017-11-20T06:38:22.764Z,101134.57
2017-11-20T06:39:25.272Z,101133.54
2017-11-20T06:40:27.732Z,101137.98
2017-11-20T06:41:30.206Z,101135.95
2017-11-20T06:42:32.677Z,101134.22
2017-11-20T06:43:35.187Z,101139.06
2017-11-20T06:44:37.672Z,101135.56
2017-11-20T06:45:40.146Z,101135.47
2017-11-20T06:46:42.618Z,101134.53
2017-11-20T06:47:45.139Z,101131.43
2017-11-20T06:48:47.627Z,101133.68
2017-11-20T06:49:50.134Z,101132.92
2017-11-20T06:50:52.596Z,101137.52
2017-11-20T06:51:55.062Z,101137.45
2017-11-20T06:52:57.534Z,101139.28
2017-11-20T06:53:59.992Z,101136.03
2017-11-20T06:55:02.481Z,101133.34
2017-11-20T06:56:04.945Z,101139.70
2017-11-20T06:57:07.421Z,101136.05
2017-11-20T06:58:09.952Z,101144.76
2017-11-20T06:59:12.432Z,101146.97
2017-11-20T07:00:14.919Z,101147.94
2017-11-20T07:01:17.500Z,101144.84
2017-11-20T07:02:19.986Z,101145.61
2017-11-20T07:03:22.462Z,101146.28
2017-11-20T07:04:24.949Z,101143.71
2017-11-20T07:05:27.439Z,101151.00
2017-11-20T07:06:29.913Z,101146.21
2017-11-20T07:07:32.396Z,101150.08
2017-11-20T07:08:34.859Z,101151.09
2017-11-20T07:09:37.346Z,101152.44
2017-11-20T07:10:39.829Z,101148.74
2017-11-20T07:11:42.295Z,101149.05
2017-11-20T07:12:44.755Z,101156.17
2017-11-20T07:13:47.237Z,101150.38
2017-11-20T07:14:49.765Z,101152.54
2017-11-20T07:15:52.420Z,101156.76
2017-11-20T07:16:54.911Z,101161.80
2017-11-20T07:17:57.398Z,101163.27
2017-11-20T07:18:59.869Z,101158.70
2017-11-20T07:20:02.349Z,101160.73
2017-11-20T07:21:04.914Z,101158.64
2017-11-20T07:22:07.471Z,101161.22
2017-11-20T07:23:09.966Z,101164.47
2017-11-20T07:24:12.432Z,101163.66
2017-11-20T07:25:26.905Z,101165.69
2017-11-20T07:26:41.000Z,101168.03
2017-11-20T07:27:55.126Z,101170.17
2017-11-20T07:29:09.299Z,101167.98
2017-11-20T07:30:32.501Z,101171.84
2017-11-20T07:31:35.011Z,101176.12
2017-11-20T07:32:37.489Z,101172.64
2017-11-20T07:33:51.809Z,101170.30
2017-11-20T07:34:57.052Z,101164.40
2017-11-20T07:36:11.467Z,101172.97
2017-11-20T07:37:25.785Z,101177.59
2017-11-20T07:40:16.778Z,101174.44
2017-11-20T07:41:30.890Z,101176.65
2017-11-20T07:42:33.378Z,101170.34
2017-11-20T07:43:35.867Z,101168.56
2017-11-20T07:44:38.358Z,101172.68
2017-11-20T07:45:40.873Z,101170.34
2017-11-20T07:46:43.370Z,101168.81
2017-11-20T07:47:45.849Z,101171.16
2017-11-20T07:48:48.316Z,101170.34
2017-11-20T07:49:50.801Z,101164.84
2017-11-20T07:50:53.277Z,101160.32
2017-11-20T07:51:55.782Z,101168.81
2017-11-20T07:52:58.263Z,101163.73
2017-11-20T07:54:00.738Z,101164.55
2017-11-20T07:55:03.213Z,101165.51
2017-11-20T07:56:05.695Z,101160.98
2017-11-20T07:57:08.201Z,101167.85
2017-11-20T07:58:10.678Z,101165.66
2017-11-20T07:59:13.141Z,101161.39
2017-11-20T08:00:15.621Z,101165.10
2017-11-20T08:01:18.107Z,101162.91
2017-11-20T08:02:20.611Z,101163.33
2017-11-20T08:03:23.084Z,101164.29
2017-11-20T08:04:25.563Z,101167.19
2017-11-20T08:05:28.031Z,101168.71
2017-11-20T08:06:30.502Z,101157.73
2017-11-20T08:07:33.009Z,101163.78
2017-11-20T08:08:35.472Z,101164.19
2017-11-20T08:09:37.932Z,101164.75
2017-11-20T08:10:40.406Z,101162.16
2017-11-20T08:11:42.891Z,101167.23
2017-11-20T08:12:45.379Z,101165.45
2017-11-20T08:13:47.848Z,101164.64
2017-11-20T08:14:50.312Z,101162.86
2017-11-20T08:15:52.789Z,101155.19
2017-11-20T08:16:55.261Z,101161.08
2017-11-20T08:17:57.758Z,101147.91
2017-11-20T08:19:00.238Z,101145.73
2017-11-20T08:20:02.704Z,101151.63
2017-11-20T08:21:05.175Z,101151.22
2017-11-20T08:22:07.649Z,101144.91
2017-11-20T08:23:10.146Z,101140.95
2017-11-20T08:24:12.612Z,101143.28
2017-11-20T08:25:15.072Z,101140.12
2017-11-20T08:26:17.541Z,101140.69
2017-11-20T08:27:20.004Z,101133.83
2017-11-20T08:28:22.505Z,101139.47
2017-11-20T08:29:24.973Z,101138.50
2017-11-20T08:30:27.448Z,101138.50
2017-11-20T08:31:29.920Z,101138.09
2017-11-20T08:32:32.403Z,101137.12
2017-11-20T08:33:34.936Z,101140.44
2017-11-20T08:34:37.396Z,101128.08
2017-11-20T08:35:39.870Z,101141.80
2017-11-20T08:36:42.355Z,101133.16
2017-11-20T08:37:44.842Z,101130.98
2017-11-20T08:38:47.392Z,101134.69
2017-11-20T08:39:49.855Z,101135.81
2017-11-20T08:40:52.322Z,101127.72
2017-11-20T08:41:54.798Z,101130.06
2017-11-20T08:42:57.277Z,101127.72
2017-11-20T08:43:59.770Z,101122.38
2017-11-20T08:45:02.254Z,101122.38
2017-11-20T08:46:04.723Z,101122.38
2017-11-20T08:47:07.211Z,101113.86
2017-11-20T08:48:09.685Z,101117.42
2017-11-20T08:49:12.186Z,101112.89
2017-11-20T08:50:14.658Z,101111.27
2017-11-20T08:51:17.138Z,101115.23
2017-11-20T08:52:19.648Z,101111.67
2017-11-20T08:53:22.201Z,101111.11
2017-11-20T08:54:24.703Z,101110.15
2017-11-20T08:55:27.178Z,101103.84
2017-11-20T08:56:29.644Z,101106.59
2017-11-20T08:57:32.169Z,101105.22
2017-11-20T08:58:34.646Z,101107.15
2017-11-20T08:59:37.148Z,101118.69
2017-11-20T09:00:39.672Z,101114.57
2017-11-20T09:01:42.137Z,101118.84
2017-11-20T09:02:44.600Z,101107.30
2017-11-20T09:03:47.069Z,101102.63
2017-11-20T09:04:49.575Z,101095.35
2017-11-20T09:05:58.837Z,101094.53
2017-11-20T09:07:01.325Z,101095.09
2017-11-20T09:08:03.807Z,101091.38
2017-11-20T09:09:06.284Z,101089.20
2017-11-20T09:10:08.781Z,101097.84
2017-11-20T09:11:11.267Z,101090.16
2017-11-20T09:12:13.743Z,101091.54
2017-11-20T09:13:16.211Z,101098.41
2017-11-20T09:14:18.694Z,101088.38
2017-11-20T09:15:21.199Z,101082.08
2017-11-20T09:16:23.680Z,101086.20
2017-11-20T09:17:26.161Z,101082.48
2017-11-20T09:18:28.655Z,101086.20
2017-11-20T09:19:31.145Z,101082.64
2017-11-20T09:20:33.641Z,101086.35
2017-11-20T09:21:36.105Z,101086.76
2017-11-20T09:22:38.582Z,101088.54
2017-11-20T09:23:41.066Z,101086.76
2017-11-20T09:24:43.532Z,101082.23
2017-11-20T09:25:46.016Z,101088.13
2017-11-20T09:26:48.493Z,101087.16
2017-11-20T09:27:50.964Z,101086.35
2017-11-20T09:28:53.438Z,101074.00
2017-11-20T09:29:56.005Z,101075.92
2017-11-20T09:30:58.501Z,101075.52
2017-11-20T09:32:00.960Z,101073.74
2017-11-20T09:33:03.508Z,101067.44
2017-11-20T09:34:05.971Z,101065.25
2017-11-20T09:35:08.447Z,101070.59
2017-11-20T09:36:10.928Z,101066.88
2017-11-20T09:37:13.384Z,101058.64
2017-11-20T09:38:15.844Z,101066.06
2017-11-20T09:39:18.303Z,101057.83
2017-11-20T09:40:20.760Z,101061.95
2017-11-20T09:41:23.279Z,101067.03
2017-11-20T09:42:25.763Z,101064.69
2017-11-20T09:43:28.225Z,101061.13
2017-11-20T09:44:30.707Z,101063.63
2017-11-20T09:45:33.185Z,101059.51
2017-11-20T09:46:35.678Z,101059.91
2017-11-20T09:47:38.153Z,101058.28
2017-11-20T09:48:40.630Z,101051.42
2017-11-20T09:49:43.105Z,101042.38
2017-11-20T09:50:45.568Z,101047.45
2017-11-20T09:51:48.057Z,101040.59
2017-11-20T09:52:50.519Z,101040.19
2017-11-20T09:53:53.024Z,101042.12
2017-11-20T09:54:55.493Z,101034.03
2017-11-20T09:55:57.976Z,101031.29
2017-11-20T09:57:00.464Z,101028.14
2017-11-20T09:58:02.944Z,101027.73
2017-11-20T09:59:05.413Z,101032.41
2017-11-20T10:00:07.895Z,101028.14
2017-11-20T10:01:10.380Z,101026.52
2017-11-20T10:02:12.885Z,101022.86
2017-11-20T10:03:15.379Z,101019.02
2017-11-20T10:04:17.856Z,101015.20
2017-11-20T10:05:20.316Z,101016.32
2017-11-20T10:06:22.817Z,101015.20
2017-11-20T10:07:25.308Z,101009.46
2017-11-20T10:08:27.803Z,101006.16
2017-11-20T10:09:30.283Z,101004.94
2017-11-20T10:10:32.748Z,101001.78
2017-11-20T10:11:35.226Z,101001.94
2017-11-20T10:12:37.708Z,100993.14
2017-11-20T10:13:40.196Z,100996.85
2017-11-20T10:14:42.668Z,100987.66
2017-11-20T10:15:45.146Z,100991.77
2017-11-20T10:16:47.607Z,100986.84
2017-11-20T10:17:50.110Z,100986.03
2017-11-20T10:18:52.577Z,100984.09
2017-11-20T10:19:55.054Z,100983.53
2017-11-20T10:20:57.533Z,100980.54
2017-11-20T10:22:00.184Z,100977.23
2017-11-20T10:23:02.826Z,100971.74
2017-11-20T10:24:05.310Z,100970.38
2017-11-20T10:25:07.772Z,100978.61
2017-11-20T10:26:10.237Z,100975.86
2017-11-20T10:27:12.709Z,100966.41
2017-11-20T10:28:15.210Z,100965.59
2017-11-20T10:29:17.682Z,100964.62
2017-11-20T10:30:20.152Z,100955.98
2017-11-20T10:31:22.630Z,100955.17
2017-11-20T10:32:25.087Z,100957.77
2017-11-20T10:33:27.586Z,100955.17
2017-11-20T10:34:30.049Z,100958.48
2017-11-20T10:35:32.523Z,100953.80
2017-11-20T10:36:35.003Z,100958.73
2017-11-20T10:37:37.468Z,100951.87
2017-11-20T10:38:39.967Z,100950.50
2017-11-20T10:39:42.423Z,100953.24
2017-11-20T10:40:44.892Z,100952.69
2017-11-20T10:41:47.371Z,100948.16
2017-11-20T10:42:49.843Z,100944.04
2017-11-20T10:43:52.332Z,100942.83
2017-11-20T10:44:54.806Z,100945.56
2017-11-20T10:45:57.267Z,100935.96
2017-11-20T10:46:59.755Z,100935.96
2017-11-20T10:48:02.234Z,100937.48
2017-11-20T10:49:04.716Z,100941.05
2017-11-20T10:50:07.198Z,100942.16
2017-11-20T10:51:09.697Z,100947.91
2017-11-20T10:52:12.221Z,100939.67
2017-11-20T10:53:14.697Z,100943.13
2017-11-20T10:54:17.176Z,100941.91
2017-11-20T10:55:19.686Z,100941.10
2017-11-20T10:56:22.148Z,100941.50
2017-11-20T10:57:24.625Z,100939.73
2017-11-20T10:58:27.098Z,100935.61
2017-11-20T10:59:29.601Z,100936.98
2017-11-20T11:00:32.068Z,100933.98
2017-11-20T11:01:34.550Z,100941.10
2017-11-20T11:02:37.027Z,100929.62
2017-11-20T11:03:39.493Z,100934.30
2017-11-20T11:04:41.971Z,100936.23
2017-11-20T11:05:44.432Z,100933.33
2017-11-20T11:06:46.903Z,100930.53
2017-11-20T11:07:49.369Z,100930.89
2017-11-20T11:08:51.846Z,100930.09
2017-11-20T11:09:54.339Z,100934.77
2017-11-20T11:10:56.836Z,100929.59
2017-11-20T11:11:59.309Z,100932.84
2017-11-20T11:13:01.772Z,100923.69
2017-11-20T11:14:04.236Z,100929.94
2017-11-20T11:15:06.725Z,100923.94
2017-11-20T11:16:09.209Z,100927.55
2017-11-20T11:17:12.163Z,100924.63
2017-11-20T11:18:14.659Z,100917.00
2017-11-20T11:19:17.132Z,100919.41
2017-11-20T11:20:19.634Z,100920.64
2017-11-20T11:21:22.115Z,100918.33
2017-11-20T11:22:24.594Z,100918.91
2017-11-20T11:23:27.065Z,100916.72
2017-11-20T11:24:29.538Z,100916.16
2017-11-20T11:25:32.046Z,100916.81
2017-11-20T11:26:34.533Z,100916.48
2017-11-20T11:27:37.025Z,100916.36
2017-11-20T11:28:39.750Z,100920.33
2017-11-20T11:29:42.477Z,100917.02
2017-11-20T11:30:44.945Z,100915.99
2017-11-20T11:31:47.436Z,100911.70
2017-11-20T11:32:49.913Z,100909.27
2017-11-20T11:33:52.382Z,100907.59
2017-11-20T11:34:54.843Z,100905.55
2017-11-20T11:35:57.327Z,100905.61
2017-11-20T11:36:59.796Z,100900.72
2017-11-20T11:38:02.279Z,100898.36
2017-11-20T11:39:04.797Z,100898.25
2017-11-20T11:40:07.300Z,100895.17
2017-11-20T11:41:09.768Z,100899.62
2017-11-20T11:42:12.244Z,100899.30
2017-11-20T11:43:14.723Z,100896.72
2017-11-20T11:44:17.188Z,100895.58
2017-11-20T11:45:19.648Z,100889.18
2017-11-20T11:46:22.124Z,100891.25
2017-11-20T11:47:24.584Z,100889.88
2017-11-20T11:48:27.078Z,100881.29
2017-11-20T11:49:29.544Z,100888.09
2017-11-20T11:50:32.039Z,100884.61
2017-11-20T11:51:34.559Z,100886.44
2017-11-20T11:52:37.053Z,100876.80
2017-11-20T11:53:39.526Z,100873.31
2017-11-20T11:54:41.998Z,100874.20
2017-11-20T11:55:44.471Z,100872.09
2017-11-20T11:56:46.946Z,100878.91